createdAt,value
2023-04-13T00:00:17.744Z,9.51
2023-04-13T00:03:08.727Z,9.26
2023-04-13T00:05:38.012Z,9.34
2023-04-13T00:08:07.210Z,9.33
2023-04-13T00:10:41.301Z,9.50
2023-04-13T00:13:11.528Z,9.48
2023-04-13T00:15:43.118Z,9.48
2023-04-13T00:18:12.545Z,9.09
2023-04-13T00:20:43.634Z,9.12
2023-04-13T00:23:12.511Z,8.99
2023-04-13T00:25:42.150Z,9.47
2023-04-13T00:28:11.993Z,9.16
2023-04-13T00:30:40.124Z,9.17
2023-04-13T00:33:08.689Z,8.98
2023-04-13T00:35:36.971Z,9.09
2023-04-13T00:38:05.511Z,9.12
2023-04-13T00:40:33.911Z,9.08
2023-04-13T00:43:05.645Z,9.44
2023-04-13T00:45:33.808Z,9.74
2023-04-13T00:48:03.128Z,9.03
2023-04-13T00:50:34.139Z,9.00
2023-04-13T00:53:03.183Z,8.97
2023-04-13T00:55:31.423Z,8.70
2023-04-13T00:58:02.024Z,8.87
2023-04-13T01:00:31.683Z,9.23
2023-04-13T01:03:01.771Z,8.78
2023-04-13T01:05:34.479Z,9.32
2023-04-13T01:08:20.289Z,9.56
2023-04-13T01:10:52.739Z,9.34
2023-04-13T01:13:22.655Z,9.11
2023-04-13T01:16:04.894Z,9.58
2023-04-13T01:18:38.063Z,9.22
2023-04-13T01:21:07.524Z,8.97
2023-04-13T01:23:51.377Z,9.25
2023-04-13T01:26:22.671Z,8.87
2023-04-13T01:28:54.363Z,9.19
2023-04-13T01:31:22.638Z,9.80
2023-04-13T01:33:51.468Z,8.93
2023-04-13T01:36:20.335Z,9.03
2023-04-13T01:38:49.080Z,8.79
2023-04-13T01:41:17.277Z,9.02
2023-04-13T01:43:46.281Z,9.19
2023-04-13T01:46:16.110Z,9.25
2023-04-13T01:48:48.981Z,9.27
2023-04-13T01:51:19.410Z,9.28
2023-04-13T01:53:49.975Z,9.06
2023-04-13T01:56:20.170Z,9.16
2023-04-13T01:58:52.046Z,9.17
2023-04-13T02:01:21.597Z,9.68
2023-04-13T02:03:50.245Z,8.86
2023-04-13T02:06:18.647Z,8.78
2023-04-13T02:08:47.201Z,8.82
2023-04-13T02:11:15.885Z,8.81
2023-04-13T02:13:44.790Z,8.77
2023-04-13T02:16:13.095Z,8.82
2023-04-13T02:18:42.991Z,9.40
2023-04-13T02:21:11.467Z,8.73
2023-04-13T02:23:41.408Z,9.17
2023-04-13T02:26:10.274Z,8.96
2023-04-13T02:28:38.823Z,8.97
2023-04-13T02:31:07.820Z,9.21
2023-04-13T02:33:37.808Z,9.11
2023-04-13T02:36:08.686Z,9.47
2023-04-13T02:38:37.533Z,9.17
2023-04-13T02:41:06.690Z,9.11
2023-04-13T02:43:35.804Z,8.98
2023-04-13T02:46:04.381Z,8.86
2023-04-13T02:48:33.160Z,9.03
2023-04-13T02:51:02.440Z,9.12
2023-04-13T02:53:32.251Z,9.27
2023-04-13T02:56:01.193Z,8.91
2023-04-13T02:58:32.543Z,8.92
2023-04-13T03:01:00.877Z,8.82
2023-04-13T03:03:30.640Z,8.81
2023-04-13T03:05:58.937Z,8.77
2023-04-13T03:08:27.669Z,8.70
2023-04-13T03:10:57.515Z,9.15
2023-04-13T03:13:26.642Z,8.84
2023-04-13T03:15:54.945Z,8.89
2023-04-13T03:18:23.890Z,8.99
2023-04-13T03:20:52.335Z,8.97
2023-04-13T03:23:21.142Z,9.04
2023-04-13T03:25:49.428Z,9.22
2023-04-13T03:28:19.655Z,9.70
2023-04-13T03:30:47.927Z,9.37
2023-04-13T03:33:16.732Z,9.43
2023-04-13T03:35:44.929Z,9.39
2023-04-13T03:38:13.440Z,9.42
2023-04-13T03:40:41.610Z,9.54
2023-04-13T03:43:10.314Z,9.45
2023-04-13T03:45:39.980Z,9.71
2023-04-13T03:48:08.704Z,9.35
2023-04-13T03:50:37.157Z,9.31
2023-04-13T03:53:05.675Z,9.35
2023-04-13T03:55:33.904Z,9.21
2023-04-13T03:58:02.849Z,9.27
2023-04-13T04:00:33.689Z,9.30
2023-04-13T04:03:03.825Z,9.53
2023-04-13T04:05:32.088Z,9.22
2023-04-13T04:08:00.638Z,9.31
2023-04-13T04:10:29.588Z,9.49
2023-04-13T04:12:58.421Z,9.39
2023-04-13T04:15:26.752Z,9.54
2023-04-13T04:17:55.303Z,9.62
2023-04-13T04:20:25.113Z,9.85
2023-04-13T04:22:53.942Z,9.56
2023-04-13T04:25:23.108Z,9.56
2023-04-13T04:27:53.240Z,9.78
2023-04-13T04:30:22.358Z,9.43
2023-04-13T04:32:53.242Z,9.38
2023-04-13T04:35:22.121Z,9.47
2023-04-13T04:37:51.925Z,9.80
2023-04-13T04:40:20.688Z,9.30
2023-04-13T04:42:49.432Z,9.51
2023-04-13T04:45:17.730Z,9.74
2023-04-13T04:47:46.181Z,9.92
2023-04-13T04:50:14.945Z,9.98
2023-04-13T04:52:43.415Z,9.93
2023-04-13T04:55:13.188Z,10.27
2023-04-13T04:57:41.708Z,10.09
2023-04-13T05:00:15.440Z,10.12
2023-04-13T05:02:45.113Z,9.99
2023-04-13T05:05:13.558Z,10.02
2023-04-13T05:07:42.232Z,9.94
2023-04-13T05:10:12.388Z,10.32
2023-04-13T05:12:41.083Z,10.09
2023-04-13T05:15:10.045Z,10.31
2023-04-13T05:17:38.544Z,10.33
2023-04-13T05:20:08.141Z,11.06
2023-04-13T05:22:37.314Z,11.85
2023-04-13T05:25:06.845Z,12.84
2023-04-13T05:27:37.160Z,13.97
2023-04-13T05:30:09.773Z,14.23
2023-04-13T05:32:38.561Z,13.93
2023-04-13T05:35:08.132Z,13.90
2023-04-13T05:37:40.122Z,13.30
2023-04-13T05:40:13.722Z,13.27
2023-04-13T05:42:44.157Z,13.34
2023-04-13T05:45:13.315Z,12.63
2023-04-13T05:47:41.995Z,12.58
2023-04-13T05:50:11.234Z,12.78
2023-04-13T05:52:39.870Z,12.77
2023-04-13T05:55:08.575Z,12.93
2023-04-13T05:57:37.217Z,13.17
2023-04-13T06:00:10.627Z,13.73
2023-04-13T06:02:40.436Z,13.64
2023-04-13T06:05:09.668Z,14.09
2023-04-13T06:07:38.322Z,14.52
2023-04-13T06:10:07.626Z,15.21
2023-04-13T06:12:36.396Z,15.39
2023-04-13T06:15:07.174Z,15.91
2023-04-13T06:17:35.880Z,15.64
2023-04-13T06:20:07.384Z,15.42
2023-04-13T06:22:35.985Z,15.63
2023-04-13T06:25:05.055Z,16.15
2023-04-13T06:27:35.501Z,16.69
2023-04-13T06:30:07.144Z,16.29
2023-04-13T06:32:37.330Z,16.67
2023-04-13T06:35:06.392Z,16.38
2023-04-13T06:37:36.310Z,16.34
2023-04-13T06:40:13.983Z,15.97
2023-04-13T06:42:43.711Z,15.74
2023-04-13T06:45:13.329Z,15.54
2023-04-13T06:47:43.457Z,15.47
2023-04-13T06:50:14.343Z,15.35
2023-04-13T06:52:43.954Z,15.70
2023-04-13T06:55:12.529Z,15.61
2023-04-13T06:57:41.711Z,15.85
2023-04-13T07:00:26.067Z,16.05
2023-04-13T07:03:00.176Z,15.97
2023-04-13T07:05:29.086Z,15.65
2023-04-13T07:07:57.613Z,15.62
2023-04-13T07:10:25.902Z,15.60
2023-04-13T07:12:54.423Z,15.65
2023-04-13T07:15:22.875Z,15.71
2023-04-13T07:17:52.630Z,15.88
2023-04-13T07:20:22.431Z,16.17
2023-04-13T07:22:50.912Z,16.05
2023-04-13T07:25:19.413Z,16.22
2023-04-13T07:27:48.177Z,16.38
2023-04-13T07:30:17.091Z,16.94
2023-04-13T07:32:45.956Z,17.20
2023-04-13T07:35:14.282Z,17.59
2023-04-13T07:37:44.684Z,18.59
2023-04-13T07:40:13.576Z,18.85
2023-04-13T07:42:42.414Z,19.08
2023-04-13T07:45:11.762Z,19.82
2023-04-13T07:47:40.440Z,20.82
2023-04-13T07:50:09.858Z,23.11
2023-04-13T07:52:38.794Z,24.93
2023-04-13T07:55:09.743Z,26.81
2023-04-13T07:57:38.623Z,27.19
2023-04-13T08:00:08.445Z,27.85
2023-04-13T08:02:37.805Z,28.14
2023-04-13T08:05:07.260Z,28.62
2023-04-13T08:07:36.383Z,29.08
2023-04-13T08:10:04.873Z,30.91
2023-04-13T08:12:34.955Z,32.86
2023-04-13T08:15:03.300Z,32.45
2023-04-13T08:17:31.888Z,31.25
2023-04-13T08:20:00.267Z,30.21
2023-04-13T08:22:29.013Z,29.18
2023-04-13T08:24:57.608Z,28.73
2023-04-13T08:27:26.313Z,28.48
2023-04-13T08:30:01.701Z,29.93
2023-04-13T08:32:30.485Z,31.01
2023-04-13T08:34:58.766Z,32.37
2023-04-13T08:37:29.492Z,33.78
2023-04-13T08:40:00.559Z,33.66
2023-04-13T08:42:29.465Z,33.24
2023-04-13T08:45:00.539Z,34.21
2023-04-13T08:47:30.577Z,34.60
2023-04-13T08:49:59.761Z,35.77
2023-04-13T08:52:29.915Z,37.26
2023-04-13T08:55:01.026Z,38.28
2023-04-13T08:57:30.769Z,38.18
2023-04-13T09:00:01.624Z,37.97
2023-04-13T09:02:35.744Z,36.41
2023-04-13T09:05:09.671Z,34.37
2023-04-13T09:07:39.095Z,33.34
2023-04-13T09:10:09.609Z,32.82
2023-04-13T09:12:38.526Z,31.63
2023-04-13T09:15:09.739Z,30.68
2023-04-13T09:17:39.206Z,29.18
2023-04-13T09:20:16.625Z,28.92
2023-04-13T09:22:45.831Z,28.83
2023-04-13T09:25:25.063Z,29.68
2023-04-13T09:27:53.896Z,29.57
2023-04-13T09:30:25.640Z,30.53
2023-04-13T09:33:06.013Z,31.75
2023-04-13T09:35:35.870Z,32.83
2023-04-13T09:38:06.426Z,33.98
2023-04-13T09:40:38.275Z,34.19
2023-04-13T09:43:09.740Z,35.95
2023-04-13T09:45:40.235Z,37.35
2023-04-13T09:48:18.955Z,38.48
2023-04-13T09:50:47.589Z,38.79
2023-04-13T09:53:16.422Z,40.34
2023-04-13T09:55:47.581Z,42.20
2023-04-13T09:58:18.444Z,44.27
2023-04-13T10:00:48.252Z,45.58
2023-04-13T10:03:19.171Z,46.83
2023-04-13T10:08:27.223Z,47.22
2023-04-13T10:11:04.673Z,47.83
2023-04-13T10:13:38.220Z,48.71
2023-04-13T10:16:32.184Z,48.96
2023-04-13T10:19:06.574Z,48.13
2023-04-13T10:21:39.355Z,46.31
2023-04-13T10:24:12.561Z,45.06
2023-04-13T10:26:44.098Z,42.90
2023-04-13T10:29:14.984Z,40.99
2023-04-13T10:31:46.905Z,42.17
2023-04-13T10:34:25.594Z,42.99
2023-04-13T10:36:56.219Z,42.77
2023-04-13T10:39:26.014Z,42.66
2023-04-13T10:42:00.689Z,42.90
2023-04-13T10:44:29.860Z,42.35
2023-04-13T10:47:05.797Z,44.05
2023-04-13T10:49:34.989Z,43.56
2023-04-13T10:52:03.618Z,43.49
2023-04-13T10:54:33.239Z,43.39
2023-04-13T10:57:03.676Z,43.01
2023-04-13T10:59:53.537Z,41.85
2023-04-13T11:02:28.029Z,39.19
2023-04-13T11:04:57.481Z,36.90
2023-04-13T11:07:27.028Z,35.76
2023-04-13T11:12:29.891Z,34.64
2023-04-13T11:14:58.705Z,34.56
2023-04-13T11:17:28.646Z,34.73
2023-04-13T11:19:59.855Z,33.94
2023-04-13T11:22:28.825Z,32.79
2023-04-13T11:25:08.435Z,33.06
2023-04-13T11:27:37.970Z,32.73
2023-04-13T11:30:09.576Z,32.56
2023-04-13T11:32:43.113Z,32.16
2023-04-13T11:35:14.102Z,31.44
2023-04-13T11:37:43.583Z,31.53
2023-04-13T11:40:15.122Z,31.48
2023-04-13T11:42:46.004Z,30.91
2023-04-13T11:45:15.947Z,30.47
2023-04-13T11:47:46.225Z,30.89
2023-04-13T11:50:16.690Z,30.89
2023-04-13T11:52:46.659Z,30.83
2023-04-13T11:55:23.283Z,31.10
2023-04-13T11:57:53.605Z,31.28
2023-04-13T12:00:26.568Z,31.44
2023-04-13T12:05:31.568Z,30.54
2023-04-13T12:08:00.807Z,31.03
2023-04-13T12:10:39.653Z,29.77
2023-04-13T12:18:28.315Z,28.66
2023-04-13T12:21:05.994Z,28.38
2023-04-13T12:23:35.221Z,27.61
2023-04-13T12:26:33.212Z,27.33
2023-04-13T12:29:02.300Z,26.83
2023-04-13T12:31:36.237Z,26.29
2023-04-13T12:34:07.906Z,25.64
2023-04-13T12:36:40.741Z,24.95
2023-04-13T12:39:11.403Z,24.53
2023-04-13T12:41:40.842Z,24.20
2023-04-13T12:44:13.092Z,24.24
2023-04-13T12:46:42.681Z,23.51
2023-04-13T12:49:12.530Z,23.75
2023-04-13T12:51:41.419Z,23.20
2023-04-13T12:54:13.445Z,23.23
2023-04-13T12:56:42.380Z,23.13
2023-04-13T12:59:10.882Z,23.05
2023-04-13T13:01:39.804Z,22.97
2023-04-13T13:04:08.422Z,22.90
2023-04-13T13:06:38.733Z,23.11
2023-04-13T13:09:07.742Z,22.54
2023-04-13T13:11:36.460Z,22.17
2023-04-13T13:14:04.783Z,21.80
2023-04-13T13:16:33.997Z,21.52
2023-04-13T13:19:02.682Z,21.43
2023-04-13T13:21:31.644Z,21.64
2023-04-13T13:24:01.382Z,21.86
2023-04-13T13:26:39.578Z,21.56
2023-04-13T13:29:19.485Z,21.68
2023-04-13T13:31:48.330Z,21.62
2023-04-13T13:34:16.744Z,21.84
2023-04-13T13:36:46.648Z,21.97
2023-04-13T13:39:18.347Z,22.53
2023-04-13T13:41:46.753Z,22.35
2023-04-13T13:44:15.121Z,22.39
2023-04-13T13:46:43.959Z,22.43
2023-04-13T13:49:12.314Z,22.38
2023-04-13T13:51:40.857Z,22.30
2023-04-13T13:54:09.263Z,22.07
2023-04-13T13:56:39.182Z,21.99
2023-04-13T13:59:07.537Z,21.26
2023-04-13T14:01:36.166Z,21.01
2023-04-13T14:04:04.617Z,20.92
2023-04-13T14:06:33.456Z,20.82
2023-04-13T14:09:02.022Z,20.75
2023-04-13T14:11:31.500Z,20.86
2023-04-13T14:14:10.826Z,21.12
2023-04-13T14:16:47.353Z,20.77
2023-04-13T14:19:15.663Z,20.44
2023-04-13T14:21:44.390Z,20.06
2023-04-13T14:24:14.291Z,19.79
2023-04-13T14:26:42.819Z,19.59
2023-04-13T14:29:12.658Z,19.84
2023-04-13T14:31:41.227Z,19.44
2023-04-13T14:34:09.514Z,19.51
2023-04-13T14:36:39.254Z,19.52
2023-04-13T14:39:07.834Z,19.67
2023-04-13T14:41:36.748Z,19.79
2023-04-13T14:44:05.382Z,19.85
2023-04-13T14:46:35.349Z,20.10
2023-04-13T14:49:03.969Z,19.68
2023-04-13T14:51:32.814Z,19.56
2023-04-13T14:54:01.184Z,19.57
2023-04-13T14:56:30.182Z,19.37
2023-04-13T14:58:58.974Z,19.22
2023-04-13T15:01:27.909Z,19.04
2023-04-13T15:03:57.742Z,19.19
2023-04-13T15:06:28.543Z,18.98
2023-04-13T15:08:56.984Z,18.48
2023-04-13T15:11:25.839Z,18.32
2023-04-13T15:13:54.604Z,18.25
2023-04-13T15:16:23.839Z,18.15
2023-04-13T15:18:52.214Z,17.67
2023-04-13T15:21:22.169Z,17.79
2023-04-13T15:23:50.366Z,17.34
2023-04-13T15:26:19.459Z,17.47
2023-04-13T15:28:47.869Z,17.35
2023-04-13T15:31:16.844Z,17.51
2023-04-13T15:33:45.690Z,17.60
2023-04-13T15:36:16.088Z,17.82
2023-04-13T15:38:49.216Z,18.09
2023-04-13T15:41:20.033Z,17.67
2023-04-13T15:43:48.758Z,17.69
2023-04-13T15:46:17.836Z,17.63
2023-04-13T15:48:53.493Z,17.95
2023-04-13T15:51:22.594Z,17.38
2023-04-13T15:53:52.693Z,17.77
2023-04-13T15:56:30.832Z,17.26
2023-04-13T15:59:00.033Z,17.39
2023-04-13T16:01:29.141Z,17.17
2023-04-13T16:04:00.904Z,16.96
2023-04-13T16:06:34.395Z,17.41
2023-04-13T16:09:09.896Z,17.30
2023-04-13T16:11:39.819Z,16.87
2023-04-13T16:14:08.570Z,16.83
2023-04-13T16:16:44.479Z,16.65
2023-04-13T16:19:13.484Z,16.69
2023-04-13T16:21:44.375Z,16.74
2023-04-13T16:24:17.349Z,16.84
2023-04-13T16:26:46.319Z,16.49
2023-04-13T16:29:16.119Z,16.77
2023-04-13T16:31:47.775Z,16.90
2023-04-13T16:34:25.699Z,16.44
2023-04-13T16:36:57.650Z,16.27
2023-04-13T16:39:27.745Z,16.53
2023-04-13T16:41:56.531Z,16.07
2023-04-13T16:44:25.177Z,15.98
2023-04-13T16:46:54.289Z,15.84
2023-04-13T16:49:23.076Z,15.84
2023-04-13T16:51:51.979Z,15.49
2023-04-13T16:54:22.271Z,15.92
2023-04-13T16:56:57.069Z,15.85
2023-04-13T16:59:28.425Z,15.73
2023-04-13T17:01:57.750Z,15.26
2023-04-13T17:04:27.332Z,15.36
2023-04-13T17:07:04.203Z,15.81
2023-04-13T17:09:35.577Z,15.29
2023-04-13T17:12:06.320Z,15.43
2023-04-13T17:14:43.362Z,15.48
2023-04-13T17:17:12.720Z,15.04
2023-04-13T17:19:41.327Z,14.74
2023-04-13T17:22:10.350Z,14.81
2023-04-13T17:24:40.082Z,14.85
2023-04-13T17:27:11.217Z,15.25
2023-04-13T17:29:39.990Z,14.91
2023-04-13T17:32:09.087Z,14.97
2023-04-13T17:34:37.975Z,15.01
2023-04-13T17:37:07.682Z,15.02
2023-04-13T17:39:36.515Z,15.11
2023-04-13T17:42:05.679Z,15.08
2023-04-13T17:44:38.752Z,15.39
2023-04-13T17:47:07.480Z,15.05
2023-04-13T17:49:35.846Z,15.16
2023-04-13T17:52:04.431Z,15.04
2023-04-13T17:54:32.789Z,14.95
2023-04-13T17:57:02.254Z,15.16
2023-04-13T17:59:30.551Z,14.92
2023-04-13T18:02:00.876Z,15.34
2023-04-13T18:04:29.371Z,14.91
2023-04-13T18:06:57.985Z,14.92
2023-04-13T18:09:29.464Z,14.94
2023-04-13T18:11:59.514Z,14.89
2023-04-13T18:14:27.856Z,14.88
2023-04-13T18:16:56.389Z,14.89
2023-04-13T18:19:27.376Z,15.30
2023-04-13T18:21:56.154Z,14.96
2023-04-13T18:24:24.396Z,14.92
2023-04-13T18:26:56.220Z,15.39
2023-04-13T18:29:24.396Z,15.89
2023-04-13T18:31:53.623Z,14.85
2023-04-13T18:34:22.333Z,14.75
2023-04-13T18:36:54.134Z,15.11
2023-04-13T18:39:22.424Z,14.67
2023-04-13T18:41:51.176Z,14.70
2023-04-13T18:44:19.436Z,14.65
2023-04-13T18:46:48.279Z,14.64
2023-04-13T18:49:16.878Z,14.69
2023-04-13T18:51:45.620Z,14.67
2023-04-13T18:54:16.381Z,15.13
2023-04-13T18:56:45.091Z,14.73
2023-04-13T18:59:13.293Z,14.83
2023-04-13T19:01:41.991Z,14.79
2023-04-13T19:04:10.452Z,14.77
2023-04-13T19:06:39.977Z,14.71
2023-04-13T19:09:08.511Z,14.73
2023-04-13T19:11:49.183Z,15.44
2023-04-13T19:14:17.561Z,14.78
2023-04-13T19:16:48.046Z,15.20
2023-04-13T19:19:16.714Z,14.87
2023-04-13T19:21:45.762Z,14.75
2023-04-13T19:24:17.595Z,14.73
2023-04-13T19:26:49.653Z,15.19
2023-04-13T19:29:17.873Z,14.81
2023-04-13T19:31:47.446Z,15.00
2023-04-13T19:34:15.771Z,14.83
2023-04-13T19:36:44.319Z,14.86
2023-04-13T19:39:12.560Z,14.84
2023-04-13T19:41:42.208Z,14.97
2023-04-13T19:44:14.087Z,15.26
2023-04-13T19:46:42.804Z,14.94
2023-04-13T19:49:11.144Z,14.92
2023-04-13T19:51:39.762Z,15.00
2023-04-13T19:54:08.163Z,15.04
2023-04-13T19:56:36.689Z,14.94
2023-04-13T19:59:06.200Z,15.26
2023-04-13T20:01:36.414Z,15.35
2023-04-13T20:04:05.917Z,15.16
2023-04-13T20:06:34.876Z,14.82
2023-04-13T20:09:10.902Z,15.43
2023-04-13T20:11:39.577Z,14.77
2023-04-13T20:14:08.030Z,14.74
2023-04-13T20:16:38.110Z,15.07
2023-04-13T20:19:09.356Z,14.83
2023-04-13T20:21:38.381Z,14.73
2023-04-13T20:24:07.059Z,14.81
2023-04-13T20:26:35.681Z,14.73
2023-04-13T20:29:05.250Z,14.97
2023-04-13T20:31:34.717Z,14.84
2023-04-13T20:34:04.461Z,15.03
2023-04-13T20:36:32.887Z,14.65
2023-04-13T20:39:01.237Z,14.61
2023-04-13T20:41:32.499Z,14.86
2023-04-13T20:44:01.227Z,14.55
2023-04-13T20:46:34.743Z,14.57
2023-04-13T20:49:05.561Z,15.04
2023-04-13T20:51:34.391Z,14.73
2023-04-13T20:54:05.715Z,14.59
2023-04-13T20:56:34.445Z,14.54
2023-04-13T20:59:03.370Z,14.68
2023-04-13T21:01:31.924Z,14.42
2023-04-13T21:04:00.574Z,14.36
2023-04-13T21:06:31.943Z,14.79
2023-04-13T21:09:00.186Z,14.40
2023-04-13T21:11:28.651Z,14.37
2023-04-13T21:13:56.831Z,14.30
2023-04-13T21:16:26.607Z,14.51
2023-04-13T21:18:54.946Z,14.35
2023-04-13T21:21:25.012Z,14.27
2023-04-13T21:23:55.493Z,14.74
2023-04-13T21:26:25.225Z,14.29
2023-04-13T21:28:54.823Z,14.69
2023-04-13T21:31:23.287Z,14.25
2023-04-13T21:33:51.471Z,14.29
2023-04-13T21:38:50.966Z,14.28
2023-04-13T21:41:21.916Z,14.69
2023-04-13T21:43:50.024Z,14.31
2023-04-13T21:46:19.418Z,14.67
2023-04-13T21:48:47.785Z,14.40
2023-04-13T21:51:16.366Z,14.33
2023-04-13T21:53:44.713Z,14.36
2023-04-13T21:56:13.149Z,14.34
2023-04-13T21:58:44.526Z,14.85
2023-04-13T22:01:14.042Z,14.55
2023-04-13T22:03:44.610Z,14.79
2023-04-13T22:06:13.295Z,14.52
2023-04-13T22:08:41.832Z,14.60
2023-04-13T22:11:10.835Z,14.45
2023-04-13T22:13:39.069Z,14.43
2023-04-13T22:16:09.685Z,14.81
2023-04-13T22:18:37.994Z,14.51
2023-04-13T22:21:07.056Z,14.38
2023-04-13T22:23:35.262Z,14.45
2023-04-13T22:26:03.838Z,14.49
2023-04-13T22:28:32.606Z,14.69
2023-04-13T22:31:08.751Z,15.08
2023-04-13T22:33:37.775Z,14.70
2023-04-13T22:36:07.425Z,14.56
2023-04-13T22:38:35.660Z,14.15
2023-04-13T22:41:07.694Z,14.64
2023-04-13T22:43:35.939Z,14.04
2023-04-13T22:46:04.608Z,14.00
2023-04-13T22:48:34.145Z,14.37
2023-04-13T22:51:03.611Z,13.94
2023-04-13T22:53:32.386Z,13.90
2023-04-13T22:56:01.320Z,13.88
2023-04-13T22:58:29.763Z,13.92
2023-04-13T23:00:58.190Z,13.88
2023-04-13T23:03:27.558Z,13.95
2023-04-13T23:05:57.605Z,14.39
2023-04-13T23:08:25.886Z,14.08
2023-04-13T23:10:54.303Z,13.99
2023-04-13T23:13:22.465Z,13.98
2023-04-13T23:15:51.018Z,14.09
2023-04-13T23:18:19.431Z,14.01
2023-04-13T23:20:47.777Z,14.10
2023-04-13T23:23:17.297Z,14.38
2023-04-13T23:25:50.177Z,14.36
2023-04-13T23:28:18.430Z,13.56
2023-04-13T23:30:47.019Z,13.65
2023-04-13T23:33:15.193Z,13.73
2023-04-13T23:35:43.833Z,13.71
2023-04-13T23:38:11.973Z,13.50
2023-04-13T23:40:41.687Z,13.60
2023-04-13T23:43:09.864Z,13.22
2023-04-13T23:45:38.548Z,12.97
2023-04-13T23:48:07.304Z,13.25
2023-04-13T23:50:37.069Z,13.06
2023-04-13T23:53:05.325Z,13.14
2023-04-13T23:55:33.831Z,13.24
2023-04-13T23:58:03.472Z,13.43
